Truthville, New York
Current Conditions -  °F | °C
As of 3:53 PM on Tuesday 21 Oct 2014 (Local Time) from KGFL Reporting Station
Overcast Overcast  
Wind Chill: 54°   Ceiling: 1300
Heat Index: 54°   Visibility: 10mi
Dew Point: 48°   Wind: 9mph
Humidity: 80%   Direction: 360°N
Pressure: 29.93"   Gusts: NA
Location:  43.3389°N, 73.3194°W
Report Text: KGFL 211953Z AUTO 36008KT 10SM OVC013 12/09 A2993 RMK AO2 SLP140 T01220089
Loading
Personal Weather Stations






























Interactive Weather Map New forecast layout! Learn more

10-Day Weather Forecast

Advertisements
Track Severe Weather on mobile